createdAt,value
2023-03-22T00:00:31.171Z,11.14
2023-03-22T00:01:31.143Z,11.14
2023-03-22T00:02:31.159Z,11.14
2023-03-22T00:03:31.131Z,11.11
2023-03-22T00:04:31.096Z,11.10
2023-03-22T00:05:31.076Z,11.11
2023-03-22T00:06:31.416Z,11.11
2023-03-22T00:07:31.054Z,11.10
2023-03-22T00:08:31.053Z,11.09
2023-03-22T00:09:31.062Z,11.10
2023-03-22T00:10:31.023Z,11.07
2023-03-22T00:11:31.030Z,11.07
2023-03-22T00:12:31.023Z,11.10
2023-03-22T00:13:31.297Z,11.09
2023-03-22T00:14:30.994Z,11.09
2023-03-22T00:15:30.971Z,11.09
2023-03-22T00:16:31.042Z,11.09
2023-03-22T00:17:30.993Z,11.06
2023-03-22T00:18:31.011Z,11.03
2023-03-22T00:19:30.932Z,11.03
2023-03-22T00:20:31.212Z,11.06
2023-03-22T00:21:30.914Z,11.06
2023-03-22T00:22:30.895Z,11.03
2023-03-22T00:23:30.896Z,11.03
2023-03-22T00:24:30.917Z,11.06
2023-03-22T00:25:30.877Z,11.07
2023-03-22T00:26:30.869Z,11.07
2023-03-22T00:27:31.144Z,11.09
2023-03-22T00:28:30.853Z,11.10
2023-03-22T00:29:30.824Z,11.10
2023-03-22T00:30:30.847Z,11.10
2023-03-22T00:31:30.955Z,11.10
2023-03-22T00:32:30.785Z,11.09
2023-03-22T00:33:30.801Z,11.09
2023-03-22T00:34:31.052Z,11.10
2023-03-22T00:35:30.821Z,11.10
2023-03-22T00:36:30.821Z,11.09
2023-03-22T00:37:30.735Z,11.06
2023-03-22T00:38:41.703Z,11.06
2023-03-22T00:39:30.735Z,11.06
2023-03-22T00:40:30.704Z,11.03
2023-03-22T00:41:30.983Z,11.02
2023-03-22T00:42:30.725Z,11.02
2023-03-22T00:43:30.687Z,11.01
2023-03-22T00:44:30.664Z,11.02
2023-03-22T00:45:30.671Z,11.02
2023-03-22T00:46:30.738Z,11.01
2023-03-22T00:47:30.648Z,10.99
2023-03-22T00:48:30.954Z,10.99
2023-03-22T00:49:30.628Z,11.02
2023-03-22T00:50:30.609Z,11.03
2023-03-22T00:51:30.600Z,11.06
2023-03-22T00:52:30.587Z,11.06
2023-03-22T00:53:30.577Z,11.03
2023-03-22T00:54:30.606Z,11.06
2023-03-22T00:55:30.832Z,11.03
2023-03-22T00:56:30.544Z,11.03
2023-03-22T00:57:30.541Z,11.02
2023-03-22T00:58:30.533Z,11.03
2023-03-22T00:59:30.525Z,11.06
2023-03-22T01:00:30.535Z,11.06
2023-03-22T01:01:30.581Z,11.06
2023-03-22T01:02:30.783Z,11.03
2023-03-22T01:03:30.501Z,11.06
2023-03-22T01:04:30.453Z,11.03
2023-03-22T01:05:30.448Z,11.09
2023-03-22T01:06:30.472Z,11.11
2023-03-22T01:07:30.450Z,11.10
2023-03-22T01:08:30.416Z,11.09
2023-03-22T01:09:30.696Z,11.09
2023-03-22T01:10:30.394Z,11.09
2023-03-22T01:11:30.419Z,11.07
2023-03-22T01:12:30.425Z,11.09
2023-03-22T01:13:30.368Z,11.09
2023-03-22T01:14:30.351Z,11.11
2023-03-22T01:15:30.378Z,11.13
2023-03-22T01:16:30.632Z,11.11
2023-03-22T01:17:30.326Z,11.11
2023-03-22T01:18:30.356Z,11.10
2023-03-22T01:19:30.315Z,11.10
2023-03-22T01:20:30.306Z,11.07
2023-03-22T01:21:30.284Z,11.10
2023-03-22T01:22:30.290Z,11.09
2023-03-22T01:23:30.569Z,11.09
2023-03-22T01:24:30.285Z,11.07
2023-03-22T01:25:30.261Z,11.09
2023-03-22T01:26:30.225Z,11.09
2023-03-22T01:27:30.219Z,11.09
2023-03-22T01:28:30.200Z,11.10
2023-03-22T01:29:30.203Z,11.10
2023-03-22T01:30:30.588Z,11.11
2023-03-22T01:31:30.167Z,11.10
2023-03-22T01:32:30.166Z,11.10
2023-03-22T01:33:30.153Z,11.10
2023-03-22T01:34:30.130Z,11.09
2023-03-22T01:35:30.188Z,11.09
2023-03-22T01:36:30.205Z,11.10
2023-03-22T01:37:30.386Z,11.07
2023-03-22T01:38:30.108Z,11.10
2023-03-22T01:39:30.096Z,11.10
2023-03-22T01:40:30.093Z,11.10
2023-03-22T01:41:30.085Z,11.10
2023-03-22T01:42:30.108Z,11.10
2023-03-22T01:43:30.070Z,11.10
2023-03-22T01:44:30.333Z,11.14
2023-03-22T01:45:30.042Z,11.14
2023-03-22T01:46:30.037Z,11.14
2023-03-22T01:47:30.020Z,11.14
2023-03-22T01:48:30.050Z,11.14
2023-03-22T01:49:30.001Z,11.14
2023-03-22T01:50:29.989Z,11.14
2023-03-22T01:51:30.282Z,11.14
2023-03-22T01:52:29.960Z,11.14
2023-03-22T01:53:29.940Z,11.14
2023-03-22T01:54:29.977Z,11.16
2023-03-22T01:55:29.934Z,11.16
2023-03-22T01:56:29.924Z,11.20
2023-03-22T01:57:29.911Z,11.19
2023-03-22T01:58:30.217Z,11.19
2023-03-22T01:59:29.885Z,11.19
2023-03-22T02:00:29.932Z,11.20
2023-03-22T02:01:30.006Z,11.21
2023-03-22T02:02:29.881Z,11.21
2023-03-22T02:03:29.864Z,11.21
2023-03-22T02:04:29.845Z,11.24
2023-03-22T02:05:30.111Z,11.21
2023-03-22T02:06:29.880Z,11.20
2023-03-22T02:07:29.797Z,11.19
2023-03-22T02:08:29.794Z,11.20
2023-03-22T02:09:29.795Z,11.20
2023-03-22T02:10:29.785Z,11.20
2023-03-22T02:11:29.778Z,11.17
2023-03-22T02:12:30.098Z,11.19
2023-03-22T02:13:29.757Z,11.19
2023-03-22T02:14:29.728Z,11.16
2023-03-22T02:15:29.762Z,11.14
2023-03-22T02:16:29.719Z,11.13
2023-03-22T02:17:29.689Z,11.13
2023-03-22T02:18:29.740Z,11.10
2023-03-22T02:19:29.992Z,11.09
2023-03-22T02:20:29.674Z,11.06
2023-03-22T02:21:29.656Z,11.03
2023-03-22T02:22:29.649Z,11.06
2023-03-22T02:23:29.632Z,11.06
2023-03-22T02:24:29.661Z,11.07
2023-03-22T02:25:29.633Z,11.06
2023-03-22T02:26:29.887Z,11.02
2023-03-22T02:27:29.605Z,11.02
2023-03-22T02:28:29.576Z,11.07
2023-03-22T02:29:29.569Z,11.06
2023-03-22T02:30:29.592Z,11.03
2023-03-22T02:31:29.679Z,11.01
2023-03-22T02:32:29.534Z,10.99
2023-03-22T02:33:29.815Z,10.98
2023-03-22T02:34:29.516Z,10.94
2023-03-22T02:35:29.545Z,10.92
2023-03-22T02:36:29.536Z,10.88
2023-03-22T02:37:29.482Z,10.86
2023-03-22T02:38:29.478Z,10.83
2023-03-22T02:39:29.478Z,10.80
2023-03-22T02:40:29.736Z,10.77
2023-03-22T02:41:29.486Z,10.76
2023-03-22T02:42:29.477Z,10.74
2023-03-22T02:43:29.413Z,10.73
2023-03-22T02:44:29.444Z,10.73
2023-03-22T02:45:29.397Z,10.70
2023-03-22T02:46:29.413Z,10.68
2023-03-22T02:47:29.662Z,10.70
2023-03-22T02:48:29.412Z,10.70
2023-03-22T02:49:29.362Z,10.70
2023-03-22T02:50:29.354Z,10.66
2023-03-22T02:51:29.325Z,10.62
2023-03-22T02:52:29.356Z,10.62
2023-03-22T02:53:29.310Z,10.63
2023-03-22T02:54:29.635Z,10.63
2023-03-22T02:55:29.282Z,10.62
2023-03-22T02:56:29.290Z,10.62
2023-03-22T02:57:29.269Z,10.62
2023-03-22T02:58:29.264Z,10.60
2023-03-22T02:59:29.246Z,10.60
2023-03-22T03:00:29.305Z,10.59
2023-03-22T03:01:29.522Z,10.60
2023-03-22T03:02:29.210Z,10.62
2023-03-22T03:03:29.207Z,10.60
2023-03-22T03:04:29.204Z,10.65
2023-03-22T03:05:29.190Z,10.65
2023-03-22T03:06:29.252Z,10.65
2023-03-22T03:07:29.161Z,10.70
2023-03-22T03:08:29.440Z,10.70
2023-03-22T03:09:29.133Z,10.74
2023-03-22T03:10:29.138Z,10.77
2023-03-22T03:11:29.124Z,10.74
2023-03-22T03:12:29.167Z,10.74
2023-03-22T03:13:29.099Z,10.76
2023-03-22T03:14:29.106Z,10.77
2023-03-22T03:15:29.362Z,10.77
2023-03-22T03:16:29.183Z,10.77
2023-03-22T03:17:29.072Z,10.77
2023-03-22T03:18:29.102Z,10.78
2023-03-22T03:19:29.042Z,10.78
2023-03-22T03:20:29.033Z,10.80
2023-03-22T03:21:29.023Z,10.80
2023-03-22T03:22:29.336Z,10.81
2023-03-22T03:23:28.998Z,10.81
2023-03-22T03:24:29.022Z,10.80
2023-03-22T03:25:28.968Z,10.81
2023-03-22T03:26:28.974Z,10.81
2023-03-22T03:27:28.964Z,10.83
2023-03-22T03:28:28.961Z,10.83
2023-03-22T03:29:29.236Z,10.86
2023-03-22T03:30:28.995Z,10.88
2023-03-22T03:31:28.970Z,10.89
2023-03-22T03:32:28.903Z,10.86
2023-03-22T03:33:28.903Z,10.86
2023-03-22T03:34:28.900Z,10.86
2023-03-22T03:35:28.953Z,10.86
2023-03-22T03:36:29.192Z,10.86
2023-03-22T03:37:28.853Z,10.84
2023-03-22T03:38:28.852Z,10.84
2023-03-22T03:39:28.833Z,10.86
2023-03-22T03:40:28.821Z,10.88
2023-03-22T03:41:28.823Z,10.88
2023-03-22T03:42:28.855Z,10.89
2023-03-22T03:43:29.089Z,10.89
2023-03-22T03:44:28.891Z,10.89
2023-03-22T03:45:28.913Z,10.92
2023-03-22T03:46:28.865Z,10.94
2023-03-22T03:47:28.809Z,10.94
2023-03-22T03:48:28.782Z,10.94
2023-03-22T03:49:28.732Z,10.94
2023-03-22T03:50:29.002Z,10.94
2023-03-22T03:51:28.709Z,10.94
2023-03-22T03:52:28.702Z,10.95
2023-03-22T03:53:28.709Z,10.95
2023-03-22T03:54:28.781Z,10.98
2023-03-22T03:55:28.681Z,10.96
2023-03-22T03:56:28.698Z,10.95
2023-03-22T03:57:28.920Z,10.95
2023-03-22T03:58:28.661Z,10.95
2023-03-22T03:59:28.621Z,10.96
2023-03-22T04:00:28.668Z,10.95
2023-03-22T04:01:28.599Z,10.96
2023-03-22T04:02:28.702Z,10.96
2023-03-22T04:03:28.598Z,10.95
2023-03-22T04:04:29.091Z,10.96
2023-03-22T04:05:28.565Z,10.95
2023-03-22T04:06:28.638Z,10.96
2023-03-22T04:07:28.544Z,10.94
2023-03-22T04:08:28.536Z,10.95
2023-03-22T04:09:28.527Z,10.98
2023-03-22T04:10:28.510Z,10.96
2023-03-22T04:11:28.794Z,10.96
2023-03-22T04:12:28.530Z,10.95
2023-03-22T04:13:28.491Z,10.98
2023-03-22T04:14:28.472Z,10.98
2023-03-22T04:15:28.461Z,10.99
2023-03-22T04:16:28.497Z,10.98
2023-03-22T04:17:28.517Z,10.98
2023-03-22T04:18:28.777Z,10.99
2023-03-22T04:19:28.416Z,10.98
2023-03-22T04:20:28.405Z,10.98
2023-03-22T04:21:28.393Z,10.96
2023-03-22T04:22:28.401Z,10.95
2023-03-22T04:23:28.380Z,10.94
2023-03-22T04:24:28.410Z,10.91
2023-03-22T04:25:29.693Z,10.92
2023-03-22T04:26:28.355Z,10.89
2023-03-22T04:27:28.335Z,10.89
2023-03-22T04:28:28.317Z,10.86
2023-03-22T04:29:28.310Z,10.88
2023-03-22T04:30:28.361Z,10.88
2023-03-22T04:31:28.358Z,10.84
2023-03-22T04:32:28.578Z,10.83
2023-03-22T04:33:28.283Z,10.84
2023-03-22T04:34:28.271Z,10.83
2023-03-22T04:35:28.329Z,10.83
2023-03-22T04:36:28.400Z,10.78
2023-03-22T04:37:28.229Z,10.80
2023-03-22T04:38:28.225Z,10.78
2023-03-22T04:39:28.226Z,10.80
2023-03-22T04:40:28.218Z,10.80
2023-03-22T04:41:29.967Z,10.81
2023-03-22T04:42:28.566Z,10.81
2023-03-22T04:43:28.178Z,10.78
2023-03-22T04:44:28.160Z,10.78
2023-03-22T04:45:28.171Z,10.77
2023-03-22T04:46:28.172Z,10.74
2023-03-22T04:47:28.138Z,10.73
2023-03-22T04:48:28.247Z,10.71
2023-03-22T04:49:28.116Z,10.71
2023-03-22T04:50:28.375Z,10.73
2023-03-22T04:51:28.095Z,10.71
2023-03-22T04:52:28.093Z,10.71
2023-03-22T04:53:28.055Z,10.70
2023-03-22T04:54:28.117Z,10.70
2023-03-22T04:55:28.040Z,10.70
2023-03-22T04:56:28.042Z,10.70
2023-03-22T04:57:28.041Z,10.66
2023-03-22T04:58:28.048Z,10.66
2023-03-22T04:59:28.006Z,10.66
2023-03-22T05:00:28.068Z,10.65
2023-03-22T05:01:28.022Z,10.63
2023-03-22T05:02:28.332Z,10.65
2023-03-22T05:03:27.967Z,10.65
2023-03-22T05:04:27.953Z,10.63
2023-03-22T05:05:27.942Z,10.60
2023-03-22T05:06:27.966Z,10.58
2023-03-22T05:07:27.923Z,10.58
2023-03-22T05:08:27.934Z,10.58
2023-03-22T05:09:28.200Z,10.56
2023-03-22T05:10:27.907Z,10.56
2023-03-22T05:11:27.872Z,10.53
2023-03-22T05:12:27.913Z,10.53
2023-03-22T05:13:27.859Z,10.53
2023-03-22T05:14:27.892Z,10.53
2023-03-22T05:15:27.833Z,10.53
2023-03-22T05:16:28.238Z,10.53
2023-03-22T05:17:27.811Z,10.55
2023-03-22T05:18:27.869Z,10.55
2023-03-22T05:19:27.836Z,10.52
2023-03-22T05:20:27.781Z,10.51
2023-03-22T05:21:27.768Z,10.51
2023-03-22T05:22:27.763Z,10.51
2023-03-22T05:23:28.025Z,10.52
2023-03-22T05:24:27.771Z,10.51
2023-03-22T05:25:27.755Z,10.52
2023-03-22T05:26:27.711Z,10.51
2023-03-22T05:27:27.701Z,10.52
2023-03-22T05:28:27.704Z,10.55
2023-03-22T05:29:27.695Z,10.55
2023-03-22T05:30:28.038Z,10.56
2023-03-22T05:31:27.666Z,10.56
2023-03-22T05:32:27.654Z,10.58
2023-03-22T05:33:27.652Z,10.58
2023-03-22T05:34:27.651Z,10.58
2023-03-22T05:35:27.667Z,10.59
2023-03-22T05:36:27.657Z,10.60
2023-03-22T05:37:27.979Z,10.59
2023-03-22T05:38:27.649Z,10.59
2023-03-22T05:39:27.605Z,10.59
2023-03-22T05:40:27.610Z,10.59
2023-03-22T05:41:27.569Z,10.60
2023-03-22T05:42:27.592Z,10.60
2023-03-22T05:43:27.535Z,10.60
2023-03-22T05:44:27.540Z,10.63
2023-03-22T05:45:27.525Z,10.62
2023-03-22T05:46:27.580Z,10.65
2023-03-22T05:47:27.519Z,10.63
2023-03-22T05:48:27.538Z,10.66
2023-03-22T05:49:27.483Z,10.70
2023-03-22T05:50:27.757Z,10.70
2023-03-22T05:51:27.453Z,10.70
2023-03-22T05:52:27.463Z,10.71
2023-03-22T05:53:27.436Z,10.71
2023-03-22T05:54:27.494Z,10.73
2023-03-22T05:55:27.436Z,10.73
2023-03-22T05:56:27.521Z,10.74
2023-03-22T05:57:27.679Z,10.74
2023-03-22T05:58:27.395Z,10.74
2023-03-22T05:59:27.388Z,10.74
2023-03-22T06:00:27.433Z,10.74
2023-03-22T06:01:27.368Z,10.74
2023-03-22T06:02:27.352Z,10.77
2023-03-22T06:03:27.421Z,10.74
2023-03-22T06:04:27.636Z,10.73
2023-03-22T06:05:27.339Z,10.74
2023-03-22T06:06:27.375Z,10.73
2023-03-22T06:07:27.303Z,10.76
2023-03-22T06:08:27.287Z,10.74
2023-03-22T06:09:27.280Z,10.74
2023-03-22T06:10:27.282Z,10.76
2023-03-22T06:11:27.561Z,10.77
2023-03-22T06:12:30.009Z,10.80
2023-03-22T06:13:27.249Z,10.80
2023-03-22T06:14:27.216Z,10.81
2023-03-22T06:15:27.216Z,10.83
2023-03-22T06:16:27.224Z,10.86
2023-03-22T06:17:27.218Z,10.86
2023-03-22T06:18:27.518Z,10.86
2023-03-22T06:19:27.187Z,10.88
2023-03-22T06:20:27.228Z,10.89
2023-03-22T06:21:27.172Z,10.89
2023-03-22T06:22:27.142Z,10.91
2023-03-22T06:23:27.145Z,10.92
2023-03-22T06:24:27.158Z,10.92
2023-03-22T06:25:27.407Z,10.92
2023-03-22T06:26:27.111Z,10.96
2023-03-22T06:27:27.090Z,10.96
2023-03-22T06:28:27.102Z,10.96
2023-03-22T06:29:27.074Z,10.99
2023-03-22T06:30:27.123Z,11.01
2023-03-22T06:31:27.049Z,11.03
2023-03-22T06:32:27.317Z,11.03
2023-03-22T06:33:27.022Z,11.03
2023-03-22T06:34:27.005Z,11.07
2023-03-22T06:35:27.052Z,11.10
2023-03-22T06:36:27.040Z,11.14
2023-03-22T06:37:26.987Z,11.16
2023-03-22T06:38:26.985Z,11.14
2023-03-22T06:39:26.967Z,11.17
2023-03-22T06:40:26.936Z,11.19
2023-03-22T06:41:26.942Z,11.20
2023-03-22T06:42:26.954Z,11.24
2023-03-22T06:43:26.982Z,11.24
2023-03-22T06:44:27.185Z,11.29
2023-03-22T06:45:26.902Z,11.32
2023-03-22T06:46:26.949Z,11.32
2023-03-22T06:47:26.862Z,11.32
2023-03-22T06:48:26.989Z,11.34
2023-03-22T06:49:26.843Z,11.35
2023-03-22T06:50:26.827Z,11.39
2023-03-22T06:51:26.840Z,11.43
2023-03-22T06:52:26.826Z,11.49
2023-03-22T06:53:26.840Z,11.53
2023-03-22T06:54:26.874Z,11.54
2023-03-22T06:55:26.820Z,11.52
2023-03-22T06:56:28.052Z,11.50
2023-03-22T06:57:26.788Z,11.53
2023-03-22T06:58:26.747Z,11.53
2023-03-22T06:59:26.809Z,11.54
2023-03-22T07:00:26.822Z,11.52
2023-03-22T07:01:26.770Z,11.50
2023-03-22T07:02:26.718Z,11.47
2023-03-22T07:03:26.709Z,11.49
2023-03-22T07:04:26.728Z,11.49
2023-03-22T07:05:26.680Z,11.49
2023-03-22T07:06:26.718Z,11.49
2023-03-22T07:07:26.661Z,11.52
2023-03-22T07:08:26.644Z,11.50
2023-03-22T07:09:26.989Z,11.50
2023-03-22T07:10:26.671Z,11.52
2023-03-22T07:11:26.621Z,11.50
2023-03-22T07:12:26.684Z,11.52
2023-03-22T07:13:26.602Z,11.53
2023-03-22T07:14:26.573Z,11.53
2023-03-22T07:15:26.600Z,11.52
2023-03-22T07:16:26.947Z,11.50
2023-03-22T07:17:26.554Z,11.52
2023-03-22T07:18:26.575Z,11.52
2023-03-22T07:19:26.554Z,11.53
2023-03-22T07:20:26.584Z,11.52
2023-03-22T07:21:26.522Z,11.53
2023-03-22T07:22:26.508Z,11.56
2023-03-22T07:23:26.773Z,11.54
2023-03-22T07:24:26.778Z,11.54
2023-03-22T07:25:26.481Z,11.54
2023-03-22T07:26:26.482Z,11.56
2023-03-22T07:27:26.459Z,11.56
2023-03-22T07:28:26.429Z,11.57
2023-03-22T07:29:26.432Z,11.59
2023-03-22T07:30:26.740Z,11.61
2023-03-22T07:31:26.432Z,11.65
2023-03-22T07:32:26.475Z,11.64
2023-03-22T07:33:26.409Z,11.68
2023-03-22T07:34:27.000Z,11.72
2023-03-22T07:35:27.058Z,11.78
2023-03-22T07:36:26.383Z,11.87
2023-03-22T07:37:26.638Z,12.02
2023-03-22T07:38:26.349Z,12.16
2023-03-22T07:39:26.327Z,12.29
2023-03-22T07:40:27.052Z,12.30
2023-03-22T07:41:26.341Z,12.33
2023-03-22T07:42:26.365Z,12.26
2023-03-22T07:43:26.304Z,12.26
2023-03-22T07:44:26.280Z,12.29
2023-03-22T07:45:26.325Z,12.29
2023-03-22T07:46:26.273Z,12.39
2023-03-22T07:47:39.899Z,12.46
2023-03-22T07:48:26.303Z,12.45
2023-03-22T07:49:26.223Z,12.48
2023-03-22T07:50:26.222Z,12.45
2023-03-22T07:51:26.201Z,12.45
2023-03-22T07:52:26.242Z,12.46
2023-03-22T07:53:26.174Z,12.59
2023-03-22T07:54:33.411Z,12.66
2023-03-22T07:55:26.178Z,12.74
2023-03-22T07:56:26.500Z,12.85
2023-03-22T07:57:26.152Z,12.92
2023-03-22T07:58:26.284Z,12.93
2023-03-22T07:59:26.154Z,12.87
2023-03-22T08:00:26.156Z,12.92
2023-03-22T08:01:26.100Z,12.97
2023-03-22T08:02:26.260Z,12.95
2023-03-22T08:03:26.157Z,12.97
2023-03-22T08:04:26.082Z,13.04
2023-03-22T08:05:26.067Z,12.99
2023-03-22T08:06:26.108Z,13.00
2023-03-22T08:07:26.052Z,12.95
2023-03-22T08:08:26.359Z,12.89
2023-03-22T08:09:26.018Z,12.87
2023-03-22T08:10:25.996Z,12.88
2023-03-22T08:11:26.005Z,12.87
2023-03-22T08:12:26.035Z,12.89
2023-03-22T08:13:25.967Z,12.82
2023-03-22T08:14:35.864Z,12.81
2023-03-22T08:15:25.959Z,12.82
2023-03-22T08:16:26.018Z,12.82
2023-03-22T08:17:25.952Z,12.84
2023-03-22T08:18:25.989Z,12.88
2023-03-22T08:19:25.918Z,12.87
2023-03-22T08:20:26.172Z,12.85
2023-03-22T08:21:25.918Z,12.84
2023-03-22T08:22:25.912Z,12.87
2023-03-22T08:23:38.565Z,12.95
2023-03-22T08:24:26.007Z,12.95
2023-03-22T08:25:25.858Z,12.95
2023-03-22T08:26:26.100Z,12.92
2023-03-22T08:27:26.110Z,12.88
2023-03-22T08:28:25.821Z,12.89
2023-03-22T08:29:25.833Z,12.92
2023-03-22T08:30:25.868Z,12.92
2023-03-22T08:31:25.810Z,12.93
2023-03-22T08:32:25.804Z,12.92
2023-03-22T08:33:25.791Z,12.93
2023-03-22T08:34:26.054Z,12.95
2023-03-22T08:35:25.818Z,12.93
2023-03-22T08:36:25.844Z,12.99
2023-03-22T08:37:25.710Z,13.00
2023-03-22T08:38:25.724Z,12.99
2023-03-22T08:39:26.228Z,12.99
2023-03-22T08:40:25.949Z,13.00
2023-03-22T08:41:25.949Z,13.03
2023-03-22T08:42:25.702Z,12.97
2023-03-22T08:43:25.671Z,12.97
2023-03-22T08:44:25.641Z,12.95
2023-03-22T08:45:25.628Z,12.93
2023-03-22T08:46:25.744Z,12.95
2023-03-22T08:47:25.618Z,12.95
2023-03-22T08:48:25.963Z,12.89
2023-03-22T08:49:25.601Z,12.87
2023-03-22T08:50:25.651Z,12.82
2023-03-22T08:51:25.580Z,12.82
2023-03-22T08:52:25.550Z,12.82
2023-03-22T08:53:25.537Z,12.84
2023-03-22T08:54:25.589Z,12.88
2023-03-22T08:55:25.833Z,12.92
2023-03-22T08:56:25.518Z,12.97
2023-03-22T08:57:25.531Z,13.03
2023-03-22T08:58:25.544Z,12.99
2023-03-22T08:59:25.489Z,13.02
2023-03-22T09:00:25.624Z,13.04
2023-03-22T09:01:25.670Z,13.07
2023-03-22T09:02:25.769Z,13.09
2023-03-22T09:03:25.479Z,13.20
2023-03-22T09:04:25.484Z,13.27
2023-03-22T09:05:25.428Z,13.33
2023-03-22T09:06:25.467Z,13.32
2023-03-22T09:07:25.406Z,13.27
2023-03-22T09:08:25.527Z,13.29
2023-03-22T09:09:25.755Z,13.32
2023-03-22T09:10:25.406Z,13.41
2023-03-22T09:11:25.386Z,13.56
2023-03-22T09:12:25.408Z,13.65
2023-03-22T09:13:25.368Z,13.67
2023-03-22T09:14:25.331Z,13.65
2023-03-22T09:15:25.354Z,13.67
2023-03-22T09:16:25.630Z,13.61
2023-03-22T09:17:25.334Z,13.58
2023-03-22T09:18:25.340Z,13.55
2023-03-22T09:19:25.302Z,13.59
2023-03-22T09:20:25.264Z,13.59
2023-03-22T09:21:25.239Z,13.56
2023-03-22T09:22:25.301Z,13.54
2023-03-22T09:23:25.548Z,13.46
2023-03-22T09:24:25.249Z,13.38
2023-03-22T09:25:25.257Z,13.27
2023-03-22T09:26:25.244Z,13.15
2023-03-22T09:27:25.231Z,13.12
2023-03-22T09:28:25.382Z,13.09
2023-03-22T09:29:25.156Z,13.06
2023-03-22T09:30:25.484Z,13.04
2023-03-22T09:31:25.196Z,13.06
2023-03-22T09:32:25.146Z,13.03
2023-03-22T09:33:25.149Z,13.03
2023-03-22T09:34:25.131Z,13.09
2023-03-22T09:35:25.193Z,13.11
2023-03-22T09:36:25.230Z,13.18
2023-03-22T09:37:25.396Z,13.14
2023-03-22T09:38:25.085Z,13.14
2023-03-22T09:39:25.067Z,13.17
2023-03-22T09:40:25.072Z,13.20
2023-03-22T09:41:25.053Z,13.24
2023-03-22T09:42:25.119Z,13.27
2023-03-22T09:43:25.024Z,13.27
2023-03-22T09:44:25.282Z,13.29
2023-03-22T09:45:25.061Z,13.30
2023-03-22T09:46:25.044Z,13.41
2023-03-22T09:47:28.744Z,13.52
2023-03-22T09:48:25.107Z,13.49
2023-03-22T09:49:24.973Z,13.51
2023-03-22T09:50:24.962Z,13.65
2023-03-22T09:51:25.211Z,13.61
2023-03-22T09:52:24.990Z,13.76
2023-03-22T09:53:24.976Z,13.59
2023-03-22T09:54:25.033Z,13.56
2023-03-22T09:55:24.889Z,13.54
2023-03-22T09:56:24.915Z,13.52
2023-03-22T09:57:24.878Z,13.52
2023-03-22T09:58:25.215Z,13.59
2023-03-22T09:59:24.844Z,13.58
2023-03-22T10:00:24.929Z,13.61
2023-03-22T10:01:25.083Z,13.67
2023-03-22T10:02:24.936Z,13.70
2023-03-22T10:03:24.809Z,13.77
2023-03-22T10:04:24.844Z,13.69
2023-03-22T10:05:25.098Z,13.69
2023-03-22T10:06:24.814Z,13.62
2023-03-22T10:07:24.788Z,13.54
2023-03-22T10:08:24.762Z,13.55
2023-03-22T10:09:24.746Z,13.47
2023-03-22T10:10:24.815Z,13.43
2023-03-22T10:11:24.755Z,13.40
2023-03-22T10:12:25.053Z,13.43
2023-03-22T10:13:24.701Z,13.44
2023-03-22T10:14:24.703Z,13.47
2023-03-22T10:15:24.671Z,13.51
2023-03-22T10:16:24.780Z,13.54
2023-03-22T10:17:24.709Z,13.52
2023-03-22T10:18:24.711Z,13.49
2023-03-22T10:19:24.961Z,13.46
2023-03-22T10:20:24.605Z,13.49
2023-03-22T10:21:24.609Z,13.51
2023-03-22T10:22:24.614Z,13.55
2023-03-22T10:23:24.638Z,13.56
2023-03-22T10:24:24.613Z,13.52
2023-03-22T10:25:24.601Z,13.49
2023-03-22T10:26:24.564Z,13.52
2023-03-22T10:27:24.672Z,13.49
2023-03-22T10:28:24.566Z,13.49
2023-03-22T10:29:24.605Z,13.47
2023-03-22T10:30:24.614Z,13.41
2023-03-22T10:31:24.656Z,13.36
2023-03-22T10:32:24.801Z,13.32
2023-03-22T10:33:24.524Z,13.29
2023-03-22T10:34:24.517Z,13.30
2023-03-22T10:35:24.552Z,13.27
2023-03-22T10:36:24.529Z,13.25
2023-03-22T10:37:24.454Z,13.25
2023-03-22T10:38:24.445Z,13.29
2023-03-22T10:39:24.563Z,13.33
2023-03-22T10:40:24.404Z,13.41
2023-03-22T10:41:24.431Z,13.47
2023-03-22T10:42:24.564Z,13.54
2023-03-22T10:43:24.388Z,13.58
2023-03-22T10:44:24.651Z,13.74
2023-03-22T10:45:24.376Z,13.80
2023-03-22T10:46:24.477Z,13.92
2023-03-22T10:47:24.382Z,13.98
2023-03-22T10:48:24.438Z,14.13
2023-03-22T10:49:25.048Z,14.13
2023-03-22T10:50:24.296Z,14.07
2023-03-22T10:51:24.341Z,14.14
2023-03-22T10:52:24.307Z,14.19
2023-03-22T10:53:24.283Z,14.27
2023-03-22T10:54:26.091Z,14.38
2023-03-22T10:55:24.270Z,14.43
2023-03-22T10:56:24.233Z,14.47
2023-03-22T10:57:24.269Z,14.43
2023-03-22T10:58:24.228Z,14.49
2023-03-22T10:59:24.219Z,14.50
2023-03-22T11:00:24.467Z,14.53
2023-03-22T11:01:24.359Z,14.60
2023-03-22T11:02:24.629Z,14.62
2023-03-22T11:03:24.249Z,14.71
2023-03-22T11:04:24.161Z,14.74
2023-03-22T11:05:24.184Z,14.88
2023-03-22T11:06:24.219Z,14.74
2023-03-22T11:07:24.140Z,14.68
2023-03-22T11:08:24.129Z,14.75
2023-03-22T11:09:24.096Z,14.42
2023-03-22T11:10:24.196Z,14.49
2023-03-22T11:11:24.130Z,14.35
2023-03-22T11:12:24.223Z,14.39
2023-03-22T11:13:24.086Z,14.54
2023-03-22T11:14:24.072Z,14.56
2023-03-22T11:15:24.326Z,14.69
2023-03-22T11:16:24.079Z,14.65
2023-03-22T11:17:24.084Z,14.72
2023-03-22T11:18:24.075Z,14.81
2023-03-22T11:19:24.060Z,14.74
2023-03-22T11:20:24.121Z,14.69
2023-03-22T11:21:23.989Z,14.78
2023-03-22T11:22:23.994Z,14.74
2023-03-22T11:23:23.960Z,14.74
2023-03-22T11:24:23.999Z,14.68
2023-03-22T11:25:23.967Z,14.68
2023-03-22T11:27:25.026Z,14.69
2023-03-22T11:28:23.949Z,14.71
2023-03-22T11:29:23.902Z,14.68
2023-03-22T11:30:23.974Z,14.60
2023-03-22T11:31:23.997Z,14.47
2023-03-22T11:32:23.922Z,14.34
2023-03-22T11:33:23.877Z,14.31
2023-03-22T11:34:23.856Z,14.28
2023-03-22T11:35:23.971Z,14.31
2023-03-22T11:36:23.879Z,14.29
2023-03-22T11:37:23.857Z,14.27
2023-03-22T11:38:23.949Z,14.24
2023-03-22T11:39:24.142Z,14.21
2023-03-22T11:40:23.895Z,14.20
2023-03-22T11:41:23.747Z,14.17
2023-03-22T11:42:23.840Z,14.12
2023-03-22T11:43:23.753Z,14.09
2023-03-22T11:44:23.733Z,14.07
2023-03-22T11:45:23.764Z,14.06
2023-03-22T11:46:24.184Z,14.04
2023-03-22T11:47:23.876Z,13.99
2023-03-22T11:48:23.911Z,14.02
2023-03-22T11:49:23.751Z,14.02
2023-03-22T11:50:23.732Z,14.02
2023-03-22T11:51:24.087Z,14.02
2023-03-22T11:52:23.678Z,14.01
2023-03-22T11:53:23.946Z,14.01
2023-03-22T11:54:23.737Z,13.96
2023-03-22T11:55:23.758Z,13.94
2023-03-22T11:56:24.662Z,13.94
2023-03-22T11:57:23.658Z,14.01
2023-03-22T11:58:24.136Z,14.06
2023-03-22T11:59:23.622Z,14.10
2023-03-22T12:00:24.751Z,14.10
2023-03-22T12:01:24.299Z,14.06
2023-03-22T12:02:24.099Z,13.95
2023-03-22T12:03:23.685Z,13.94
2023-03-22T12:04:23.638Z,13.91
2023-03-22T12:05:23.564Z,13.81
2023-03-22T12:06:23.942Z,13.83
2023-03-22T12:07:23.503Z,13.76
2023-03-22T12:08:23.497Z,13.70
2023-03-22T12:09:23.501Z,13.69
2023-03-22T12:10:23.491Z,13.63
2023-03-22T12:11:23.488Z,13.63
2023-03-22T12:12:23.646Z,13.63
2023-03-22T12:13:24.172Z,13.58
2023-03-22T12:14:23.488Z,13.55
2023-03-22T12:15:23.450Z,13.47
2023-03-22T12:16:24.865Z,13.47
2023-03-22T12:17:23.655Z,13.47
2023-03-22T12:18:23.520Z,13.43
2023-03-22T12:19:23.658Z,13.37
2023-03-22T12:20:23.502Z,13.30
2023-03-22T12:21:23.396Z,13.20
2023-03-22T12:22:23.435Z,13.12
2023-03-22T12:23:23.436Z,13.06
2023-03-22T12:24:25.121Z,12.97
2023-03-22T12:25:23.381Z,12.92
2023-03-22T12:26:23.335Z,12.85
2023-03-22T12:27:23.365Z,12.84
2023-03-22T12:28:23.285Z,12.85
2023-03-22T12:29:23.300Z,12.82
2023-03-22T12:30:23.349Z,12.78
2023-03-22T12:31:23.356Z,12.78
2023-03-22T12:32:23.310Z,12.75
2023-03-22T12:33:23.259Z,12.77
2023-03-22T12:34:23.250Z,12.74
2023-03-22T12:35:23.356Z,12.74
2023-03-22T12:36:23.287Z,12.69
2023-03-22T12:37:23.227Z,12.67
2023-03-22T12:38:23.183Z,12.64
2023-03-22T12:39:23.149Z,12.59
2023-03-22T12:40:23.150Z,12.56
2023-03-22T12:41:23.128Z,12.52
2023-03-22T12:42:23.460Z,12.52
2023-03-22T12:43:23.113Z,12.49
2023-03-22T12:44:23.145Z,12.45
2023-03-22T12:45:23.098Z,12.44
2023-03-22T12:46:23.242Z,12.44
2023-03-22T12:47:23.112Z,12.44
2023-03-22T12:48:23.189Z,12.44
2023-03-22T12:49:23.385Z,12.42
2023-03-22T12:50:23.060Z,12.44
2023-03-22T12:51:23.134Z,12.42
2023-03-22T12:52:23.029Z,12.42
2023-03-22T12:53:23.041Z,12.45